2022年5月22日

时间 代码 天气 温度 能见度 乌云 METAR/SPECI
10:00
M
22 °C 9 km 1.000 ft 200°   200° 4 kt METAR LFBA 220800Z AUTO 20004KT 150V240 9000 BKN010 22/19 Q1012 BECMG NSC
09:30
I
21 °C 10 km+ 700 ft 140°   140° 6 kt METAR LFBA 220730Z AUTO 14006KT 100V190 9999 BKN007 21/19 Q1012 BECMG NSC
09:00
I
20 °C 8 km 700 ft Var   Var 3 kt METAR LFBA 220700Z AUTO VRB03KT 8000 OVC007 20/19 Q1012 BECMG NSC
08:30
I
20 °C 7 km 600 ft Var   Var 1 kt METAR LFBA 220630Z AUTO VRB01KT 7000 OVC006 20/19 Q1012 BECMG NSC
08:00
I
20 °C 8 km 600 ft Var   Var 3 kt METAR LFBA 220600Z AUTO VRB03KT 8000 OVC006 20/19 Q1012 BECMG NSC
07:30
V
19 °C 10 km+ - 270°   270° 6 kt METAR LFBA 220530Z AUTO 27006KT 240V300 9999 FEW007 SCT200 19/18 Q1013
07:00
V
19 °C 10 km+ - Var   Var 1 kt METAR LFBA 220500Z AUTO VRB01KT CAVOK 19/17 Q1013
06:30
V
18 °C 10 km+ - 260°   260° 3 kt METAR LFBA 220430Z AUTO 26003KT CAVOK 18/17 Q1012
06:00
I
18 °C 2,4 km - Var   Var 3 kt METAR LFBA 220400Z AUTO VRB03KT 9999 2400 NSC 18/18 Q1012
05:30
V
18 °C 10 km+ - 090°   090° 2 kt METAR LFBA 220330Z AUTO 09002KT CAVOK 18/17 Q1012
05:00
V
18 °C 10 km+ - 300°   300° 2 kt METAR LFBA 220300Z AUTO 30002KT CAVOK 18/17 Q1013
04:30
V
19 °C 10 km+ - Var   000° 0 kt METAR LFBA 220230Z AUTO 00000KT CAVOK 19/19 Q1013
04:00
V
19 °C 10 km+ - Var   000° 0 kt METAR LFBA 220200Z AUTO 00000KT CAVOK 19/18 Q1013
03:30
V
18 °C 10 km+ - 120°   120° 3 kt METAR LFBA 220130Z AUTO 12003KT CAVOK 18/18 Q1012
03:00
V
18 °C 10 km+ - 110°   110° 4 kt METAR LFBA 220100Z AUTO 11004KT CAVOK 18/18 Q1012
02:30
V
18 °C 10 km+ - 130°   130° 4 kt METAR LFBA 220030Z AUTO 13004KT CAVOK 18/17 Q1013
02:00
V
19 °C 10 km+ - Var   Var 2 kt METAR LFBA 220000Z AUTO VRB02KT CAVOK 19/18 Q1013
01:30
V
20 °C 10 km+ - 210°   210° 2 kt METAR LFBA 212330Z AUTO 21002KT CAVOK 20/18 Q1014
01:00
V
20 °C 10 km+ - Var   Var 2 kt METAR LFBA 212300Z AUTO VRB02KT CAVOK 20/19 Q1014
00:30
V
20 °C 10 km+ - 110°   110° 3 kt METAR LFBA 212230Z AUTO 11003KT CAVOK 20/18 Q1014
00:00
V
20 °C 10 km+ - 100°   100° 2 kt METAR LFBA 212200Z AUTO 10002KT CAVOK 20/19 Q1014

2022年5月21日

时间 代码 天气 温度 能见度 乌云 METAR/SPECI
23:30
V
21 °C 10 km+ - Var   Var 2 kt METAR LFBA 212130Z AUTO VRB02KT CAVOK 21/19 Q1014
23:00
V
22 °C 10 km+ - Var   000° 0 kt METAR LFBA 212100Z AUTO 00000KT CAVOK 22/20 Q1014
22:30
V
23 °C 10 km+ - 120°   120° 1 kt METAR LFBA 212030Z AUTO 12001KT CAVOK 23/20 Q1014
22:00
V
24 °C 8 km - 110°   110° 2 kt METAR LFBA 212000Z AUTO 11002KT 8000 NSC 24/20 Q1014 NOSIG
21:30
V
25 °C 10 km+ - 230°   230° 1 kt METAR LFBA 211930Z AUTO 23001KT CAVOK 25/21 Q1014 NOSIG
21:00
V
27 °C 10 km+ - Var   Var 1 kt METAR LFBA 211900Z AUTO VRB01KT CAVOK 27/21 Q1014 NOSIG
20:30
V
28 °C 10 km+ - 170°   170° 1 kt METAR LFBA 211830Z AUTO 17001KT CAVOK 28/20 Q1014 NOSIG
20:00
V
29 °C 10 km+ - Var   Var 2 kt METAR LFBA 211800Z AUTO VRB02KT CAVOK 29/19 Q1014 NOSIG
19:30
V
30 °C 10 km+ - 180°   180° 4 kt METAR LFBA 211730Z AUTO 18004KT 140V200 CAVOK 30/20 Q1014 NOSIG
19:00
V
31 °C 10 km+ - 200°   200° 4 kt METAR LFBA 211700Z AUTO 20004KT CAVOK 31/19 Q1015 NOSIG
18:30
V
32 °C 10 km+ - 150°   150° 4 kt METAR LFBA 211630Z AUTO 15004KT 120V230 CAVOK 32/19 Q1015 NOSIG
18:00
V
32 °C 10 km+ - 130°   130° 5 kt METAR LFBA 211600Z AUTO 13005KT 070V150 CAVOK 32/19 Q1015 NOSIG
17:30
V
32 °C 10 km+ - 100°   100° 4 kt METAR LFBA 211530Z AUTO 10004KT 050V130 CAVOK 32/18 Q1015 NOSIG
17:00
V
32 °C 10 km+ - 140°   140° 3 kt METAR LFBA 211500Z AUTO 14003KT 080V200 CAVOK 32/18 Q1015 NOSIG
16:30
V
32 °C 10 km+ - Var   Var 2 kt METAR LFBA 211430Z AUTO VRB02KT CAVOK 32/19 Q1016 NOSIG
16:00
V
31 °C 10 km+ - Var   Var 2 kt METAR LFBA 211400Z AUTO VRB02KT CAVOK 31/19 Q1016 NOSIG
15:30
V
31 °C 10 km+ - 130°   130° 6 kt METAR LFBA 211330Z AUTO 13006KT 110V190 CAVOK 31/20 Q1016 NOSIG
15:00
V
30 °C 10 km+ - Var   Var 3 kt METAR LFBA 211300Z AUTO VRB03KT CAVOK 30/19 Q1017 NOSIG
14:30
V
30 °C 10 km+ - 260°   260° 3 kt METAR LFBA 211230Z AUTO 26003KT 210V300 CAVOK 30/18 Q1017 NOSIG
14:00
V
29 °C 10 km+ - 120°   120° 6 kt METAR LFBA 211200Z AUTO 12006KT 060V160 CAVOK 29/19 Q1017 NOSIG
13:30
V
29 °C 10 km+ - 120°   120° 6 kt METAR LFBA 211130Z AUTO 12006KT 060V160 CAVOK 29/19 Q1017 NOSIG
13:00
V
28 °C 10 km+ - 100°   100° 5 kt METAR LFBA 211100Z AUTO 10005KT 040V150 CAVOK 28/20 Q1018 NOSIG
12:30
V
27 °C 10 km+ - 090°   090° 5 kt METAR LFBA 211030Z AUTO 09005KT 070V130 CAVOK 27/19 Q1018 NOSIG
12:00
V
26 °C 10 km+ - 080°   080° 4 kt METAR LFBA 211000Z AUTO 08004KT 020V120 CAVOK 26/19 Q1019 NOSIG
11:30
V
25 °C 9 km - 100°   100° 6 kt METAR LFBA 210930Z AUTO 10006KT 050V140 9000 NSC 25/18 Q1019 NOSIG
11:00
V
24 °C 9 km - 090°   090° 5 kt METAR LFBA 210900Z AUTO 09005KT 050V120 9000 NSC 24/18 Q1019 NOSIG
10:30
V
24 °C 9 km - 110°   110° 5 kt METAR LFBA 210830Z AUTO 11005KT 070V150 9000 NSC 24/18 Q1019 NOSIG
10:00
V
23 °C 9 km - 110°   110° 7 kt METAR LFBA 210800Z AUTO 11007KT 080V140 9000 NSC 23/18 Q1020 NOSIG
09:30
V
22 °C 9 km - 110°   110° 6 kt METAR LFBA 210730Z AUTO 11006KT 080V140 9000 NSC 22/18 Q1020 NOSIG
09:00
V
20 °C 9 km - 100°   100° 5 kt METAR LFBA 210700Z AUTO 10005KT 9000 NSC 20/18 Q1020 NOSIG
08:30
V
19 °C 9 km - 110°   110° 4 kt METAR LFBA 210630Z AUTO 11004KT 9000 NSC 19/17 Q1020 NOSIG
08:00
V
18 °C 9 km - 100°   100° 4 kt METAR LFBA 210600Z AUTO 10004KT 9000 NSC 18/17 Q1020 NOSIG
07:30
V
16 °C 10 km+ - 130°   130° 3 kt METAR LFBA 210530Z AUTO 13003KT CAVOK 16/15 Q1020
07:00
V
15 °C 10 km+ - 110°   110° 2 kt METAR LFBA 210500Z AUTO 11002KT CAVOK 15/15 Q1020
06:30
V
15 °C 10 km+ - 050°   050° 1 kt METAR LFBA 210430Z AUTO 05001KT CAVOK 15/14 Q1020
06:00
V
15 °C 10 km+ - Var   000° 0 kt METAR LFBA 210400Z AUTO 00000KT CAVOK 15/15 Q1021
05:30
V
16 °C 10 km+ - 260°   260° 2 kt METAR LFBA 210330Z AUTO 26002KT CAVOK 16/15 Q1021
05:00
V
16 °C 10 km+ - 290°   290° 3 kt METAR LFBA 210300Z AUTO 29003KT CAVOK 16/15 Q1021
04:30
V
16 °C 10 km+ - 290°   290° 3 kt METAR LFBA 210230Z AUTO 29003KT CAVOK 16/15 Q1021
04:00
V
17 °C 10 km+ - 290°   290° 2 kt METAR LFBA 210200Z AUTO 29002KT CAVOK 17/15 Q1022
03:30
V
17 °C 10 km+ - 280°   280° 3 kt METAR LFBA 210130Z AUTO 28003KT CAVOK 17/15 Q1022
03:00
V
17 °C 10 km+ - 280°   280° 3 kt METAR LFBA 210100Z AUTO 28003KT CAVOK 17/16 Q1022
02:30
V
18 °C 10 km+ - 270°   270° 3 kt METAR LFBA 210030Z AUTO 27003KT CAVOK 18/16 Q1022
02:00
V
19 °C 10 km+ - 260°   260° 3 kt METAR LFBA 210000Z AUTO 26003KT CAVOK 19/16 Q1023
01:30
V
20 °C 10 km+ - 260°   260° 3 kt METAR LFBA 202330Z AUTO 26003KT CAVOK 20/16 Q1023
01:00
V
20 °C 10 km+ - 260°   260° 3 kt METAR LFBA 202300Z AUTO 26003KT CAVOK 20/16 Q1023
00:30
V
20 °C 10 km+ - 260°   260° 3 kt METAR LFBA 202230Z AUTO 26003KT CAVOK 20/17 Q1023
00:00
V
20 °C 10 km+ - 260°   260° 3 kt METAR LFBA 202200Z AUTO 26003KT CAVOK 20/17 Q1023

2022年5月20日

时间 代码 天气 温度 能见度 乌云 METAR/SPECI
23:30
V
21 °C 10 km+ - 280°   280° 3 kt METAR LFBA 202130Z AUTO 28003KT CAVOK 21/17 Q1023
23:00
V
22 °C 10 km+ - 280°   280° 4 kt METAR LFBA 202100Z AUTO 28004KT CAVOK 22/17 Q1023
22:30
V
22 °C 10 km+ - 280°   280° 4 kt METAR LFBA 202030Z AUTO 28004KT CAVOK 22/17 Q1023
22:00
V
22 °C 8 km - 290°   290° 5 kt METAR LFBA 202000Z AUTO 29005KT 8000 NSC 22/17 Q1023 NOSIG
21:30
V
23 °C 10 km+ - 290°   290° 6 kt METAR LFBA 201930Z AUTO 29006KT CAVOK 23/17 Q1022 NOSIG
21:00
V
24 °C 10 km+ - 300°   300° 6 kt METAR LFBA 201900Z AUTO 30006KT CAVOK 24/17 Q1022 NOSIG
20:30
V
25 °C 10 km+ - 330°   330° 5 kt METAR LFBA 201830Z AUTO 33005KT 9999 FEW047 25/17 Q1022 NOSIG
20:00
V
26 °C 10 km+ 4.900 ft 320°   320° 6 kt METAR LFBA 201800Z AUTO 32006KT 9999 BKN049 26/18 Q1022 NOSIG
19:30
V
27 °C 10 km+ - 330°   330° 6 kt METAR LFBA 201730Z AUTO 33006KT CAVOK 27/18 Q1022 NOSIG
19:00
V
28 °C 10 km+ - 340°   340° 7 kt METAR LFBA 201700Z AUTO 34007KT 310V020 CAVOK 28/18 Q1022 NOSIG
18:30
V
28 °C 10 km+ - 330°   330° 6 kt METAR LFBA 201630Z AUTO 33006KT 290V010 9999 FEW046 28/18 Q1022 NOSIG
18:00
V
28 °C 10 km+ - 320°   320° 6 kt METAR LFBA 201600Z AUTO 32006KT 280V350 9999 FEW046 28/19 Q1022 NOSIG
17:30
V
29 °C 10 km+ - 330°   330° 7 kt METAR LFBA 201530Z AUTO 33007KT 280V010 9999 FEW047 29/19 Q1022 NOSIG
17:00
V
29 °C 10 km+ - 350°   350° 6 kt METAR LFBA 201500Z AUTO 35006KT 320V040 9999 FEW046 29/18 Q1022 NOSIG
16:30
V
29 °C 10 km+ - 040°   040° 4 kt METAR LFBA 201430Z AUTO 04004KT 350V150 9999 SCT046 29/19 Q1022 NOSIG
16:00
V
29 °C 10 km+ - 340°   340° 6 kt METAR LFBA 201400Z AUTO 34006KT 300V010 9999 FEW044 29/18 Q1022 NOSIG
15:30
V
28 °C 10 km+ - 350°   350° 5 kt METAR LFBA 201330Z AUTO 35005KT 300V040 9999 FEW044 28/18 Q1022 NOSIG
15:00
V
28 °C 10 km+ - 320°   320° 7 kt METAR LFBA 201300Z AUTO 32007KT 290V360 9999 FEW045 28/18 Q1022 NOSIG
14:30
V
28 °C 10 km+ - 310°   310° 5 kt METAR LFBA 201230Z AUTO 31005KT 260V340 CAVOK 28/18 Q1021 NOSIG
14:00
V
27 °C 10 km+ - 320°   320° 7 kt METAR LFBA 201200Z AUTO 32007KT 280V350 CAVOK 27/17 Q1022 NOSIG
13:30
V
28 °C 10 km+ - 320°   320° 7 kt METAR LFBA 201130Z AUTO 32007KT 280V350 CAVOK 28/17 Q1021 NOSIG
13:00
V
27 °C 10 km+ - Var   Var 3 kt METAR LFBA 201100Z AUTO VRB03KT CAVOK 27/18 Q1021 NOSIG
12:30
V
27 °C 10 km+ - 280°   280° 4 kt METAR LFBA 201030Z AUTO 28004KT CAVOK 27/18 Q1021 NOSIG
12:00
V
28 °C 10 km+ - Var   Var 2 kt METAR LFBA 201000Z AUTO VRB02KT CAVOK 28/18 Q1021 NOSIG
11:30
V
27 °C 10 km+ - 190°   190° 4 kt METAR LFBA 200930Z AUTO 19004KT 110V240 CAVOK 27/18 Q1020 NOSIG
11:00
V
26 °C 10 km+ - 150°   150° 5 kt METAR LFBA 200900Z AUTO 15005KT 080V210 CAVOK 26/17 Q1020 NOSIG
较旧的数据

下载我们的应用程序

在您的手机和平板电脑上轻松访问所有航空天气。
有许多网站上没有的功能,如离线支持和个人机场列表。

Studio Eveline

Benalmádena
España

我们和第三方通过cookies跟踪您在我们网站上的上网行为。如果您继续,我们认为您同意我们的cookie政策。 了解更多